Time;durP1;ratioP1;P1;durP2;ratioP2;P2;SDS_P1;SDS_P2;PMS_P1;PMS_P2;Temp;Humidity;BMP_temperature;BMP_pressure;BME280_temperature;BME280_humidity;BME280_pressure;Samples;Min_cycle;Max_cycle;Signal;HPM_P1;HPM_P2
2023/03/19 00:02:16;;;;;;;3.27;1.40;;;9.30;99.90;;;;;;5099234;27;20125;-84
2023/03/19 00:04:41;;;;;;;5.00;1.60;;;9.30;99.90;;;;;;5105566;27;20292;-83
2023/03/19 00:07:07;;;;;;;4.67;1.77;;;9.30;99.90;;;;;;5128039;27;20055;-83
2023/03/19 00:09:33;;;;;;;4.27;1.87;;;9.30;99.90;;;;;;5123146;27;20081;-83
2023/03/19 00:11:58;;;;;;;2.73;1.60;;;9.30;99.90;;;;;;5106553;27;20047;-83
2023/03/19 00:14:24;;;;;;;2.80;1.17;;;9.30;99.90;;;;;;5103415;27;20059;-84
2023/03/19 00:16:50;;;;;;;2.63;1.03;;;9.30;99.90;;;;;;5104929;27;20120;-84
2023/03/19 00:19:16;;;;;;;2.78;1.30;;;9.30;99.90;;;;;;5117849;27;20057;-83
2023/03/19 00:21:42;;;;;;;5.07;2.17;;;9.30;99.90;;;;;;5119151;27;20482;-83
2023/03/19 00:24:08;;;;;;;2.20;1.37;;;9.30;99.90;;;;;;5118916;27;20046;-83
2023/03/19 00:26:35;;;;;;;2.22;1.17;;;9.30;99.90;;;;;;5097743;27;20134;-84
2023/03/19 00:29:02;;;;;;;4.85;1.63;;;9.30;99.90;;;;;;5126710;27;20121;-83
2023/03/19 00:31:28;;;;;;;2.00;1.75;;;9.30;99.90;;;;;;5124318;27;20042;-83
2023/03/19 00:33:57;;;;;;;2.05;1.35;;;9.30;99.90;;;;;;5128532;27;20051;-83
2023/03/19 00:36:27;;;;;;;2.05;1.10;;;9.30;99.90;;;;;;5127923;27;20137;-87
2023/03/19 00:38:53;;;;;;;2.50;1.45;;;9.30;99.90;;;;;;5109235;27;20093;-83
2023/03/19 00:41:19;;;;;;;2.33;1.63;;;9.30;99.90;;;;;;5143743;27;20043;-83
2023/03/19 00:43:45;;;;;;;3.35;1.25;;;9.30;99.90;;;;;;5105843;27;20126;-83
2023/03/19 00:46:12;;;;;;;1.23;1.02;;;9.40;99.90;;;;;;5108196;27;20036;-85
2023/03/19 00:48:37;;;;;;;1.55;1.05;;;9.40;99.90;;;;;;5123305;27;20082;-83
2023/03/19 00:51:06;;;;;;;2.30;0.97;;;9.40;99.90;;;;;;5125156;27;20137;-83
2023/03/19 00:53:35;;;;;;;1.85;1.50;;;9.40;99.90;;;;;;5117144;27;20448;-83
2023/03/19 00:56:01;;;;;;;4.32;1.60;;;9.40;99.90;;;;;;5123727;27;20047;-84
2023/03/19 00:58:26;;;;;;;3.00;1.73;;;9.40;99.90;;;;;;5102021;27;20035;-87
2023/03/19 01:00:53;;;;;;;1.97;1.17;;;9.40;99.90;;;;;;5095245;27;20078;-84
2023/03/19 01:03:21;;;;;;;2.13;1.27;;;9.40;99.90;;;;;;5109437;27;20065;-85
2023/03/19 01:05:48;;;;;;;3.83;1.77;;;9.50;99.90;;;;;;5121924;27;20031;-83
2023/03/19 01:08:15;;;;;;;3.40;1.88;;;9.50;99.90;;;;;;5110535;27;20042;-84
2023/03/19 01:10:42;;;;;;;2.10;1.23;;;9.50;99.90;;;;;;5106086;27;20042;-84
2023/03/19 01:13:08;;;;;;;3.72;1.40;;;9.60;99.90;;;;;;5111978;27;20899;-83
2023/03/19 01:15:41;;;;;;;1.63;1.17;;;9.60;99.90;;;;;;5124510;27;20171;-84
2023/03/19 01:18:09;;;;;;;1.38;0.95;;;9.60;99.90;;;;;;5114715;27;20517;-84
2023/03/19 01:20:36;;;;;;;1.58;1.25;;;9.60;99.90;;;;;;5105381;27;20054;-85
2023/03/19 01:23:05;;;;;;;3.90;1.23;;;9.60;99.90;;;;;;5123107;27;20046;-83
2023/03/19 01:25:32;;;;;;;1.27;1.00;;;9.60;99.90;;;;;;5133544;27;20122;-86
2023/03/19 01:27:58;;;;;;;2.78;1.65;;;9.60;99.90;;;;;;5136918;27;20404;-83
2023/03/19 01:30:23;;;;;;;2.03;1.43;;;9.60;99.90;;;;;;5101599;27;20055;-83
2023/03/19 01:32:52;;;;;;;2.30;1.17;;;9.60;99.90;;;;;;5118902;27;20051;-84
2023/03/19 01:35:18;;;;;;;3.50;0.90;;;9.60;99.90;;;;;;5119509;27;20043;-83
2023/03/19 01:37:44;;;;;;;2.27;1.23;;;9.60;99.90;;;;;;5085055;27;20389;-83
2023/03/19 01:40:12;;;;;;;2.20;1.20;;;9.60;99.90;;;;;;5120397;27;20051;-83
2023/03/19 01:43:14;;;;;;;1.27;1.08;;;9.60;99.90;;;;;;5121900;27;20049;-83
2023/03/19 01:45:42;;;;;;;1.48;0.90;;;9.60;99.90;;;;;;5115977;27;20058;-83
2023/03/19 01:48:31;;;;;;;3.35;1.80;;;9.60;99.90;;;;;;5139920;27;20084;-83
2023/03/19 01:50:58;;;;;;;0.65;0.60;;;9.60;99.90;;;;;;5108455;27;20142;-83
2023/03/19 01:53:29;;;;;;;2.78;1.10;;;9.60;99.90;;;;;;5126567;27;20038;-85
2023/03/19 01:56:01;;;;;;;1.90;1.70;;;9.60;99.90;;;;;;5108348;27;20870;-83
2023/03/19 01:58:28;;;;;;;1.33;0.90;;;9.50;99.90;;;;;;5124992;27;20045;-83
2023/03/19 02:00:55;;;;;;;1.98;1.25;;;9.50;99.90;;;;;;5130002;27;20043;-83
2023/03/19 02:03:21;;;;;;;2.05;1.38;;;9.50;99.90;;;;;;5106338;27;20062;-83
2023/03/19 02:05:50;;;;;;;0.52;0.50;;;9.50;99.90;;;;;;5126521;27;20075;-83
2023/03/19 02:08:18;;;;;;;1.40;0.82;;;9.50;99.90;;;;;;5126272;27;20043;-83
2023/03/19 02:10:46;;;;;;;0.77;0.77;;;9.40;99.90;;;;;;5128428;27;20053;-83
2023/03/19 02:13:12;;;;;;;1.50;0.95;;;9.40;99.90;;;;;;5111094;27;20035;-83
2023/03/19 02:15:38;;;;;;;1.45;0.80;;;9.40;99.90;;;;;;5129959;27;20039;-84
2023/03/19 02:18:05;;;;;;;1.27;0.80;;;9.40;99.90;;;;;;5111296;27;20481;-84
2023/03/19 02:20:48;;;;;;;0.80;0.70;;;9.40;99.90;;;;;;5126160;27;20035;-83
2023/03/19 02:23:54;;;;;;;0.68;0.68;;;9.40;99.90;;;;;;5123557;27;20035;-84
2023/03/19 02:26:26;;;;;;;0.95;0.73;;;9.30;99.90;;;;;;5026877;28;20041;-84
2023/03/19 02:28:52;;;;;;;1.35;1.00;;;9.30;99.90;;;;;;5093986;27;20086;-84
2023/03/19 02:31:19;;;;;;;1.35;1.23;;;9.30;99.90;;;;;;5113415;27;20050;-84
2023/03/19 02:34:25;;;;;;;1.58;0.85;;;9.30;99.90;;;;;;5127765;27;20117;-84
2023/03/19 02:37:06;;;;;;;1.95;0.90;;;9.30;99.90;;;;;;5086229;27;20416;-84
2023/03/19 02:39:54;;;;;;;1.90;0.65;;;9.20;99.90;;;;;;5113543;27;20053;-84
2023/03/19 02:42:21;;;;;;;;;;;9.20;99.90;;;;;;5127147;27;20046;-84
2023/03/19 02:44:47;;;;;;;1.70;1.33;;;9.10;99.90;;;;;;5107404;27;19964;-84
2023/03/19 02:47:13;;;;;;;1.70;1.40;;;9.10;99.90;;;;;;5107121;27;20039;-84
2023/03/19 02:49:39;;;;;;;1.92;1.33;;;9.10;99.90;;;;;;5129176;27;20054;-84
2023/03/19 02:52:05;;;;;;;3.40;1.23;;;9.10;99.90;;;;;;5108770;27;20039;-84
2023/03/19 02:54:30;;;;;;;2.17;1.37;;;9.10;99.90;;;;;;5098565;27;20034;-84
2023/03/19 02:56:56;;;;;;;5.33;1.60;;;9.10;99.90;;;;;;5108009;27;20039;-84
2023/03/19 02:59:22;;;;;;;4.50;2.27;;;9.00;99.90;;;;;;5123156;27;20039;-84
2023/03/19 03:01:48;;;;;;;1.07;0.97;;;9.10;99.90;;;;;;5089142;27;20054;-84
2023/03/19 03:04:15;;;;;;;2.73;0.83;;;9.10;99.90;;;;;;5135705;27;20042;-85
2023/03/19 03:06:42;;;;;;;0.80;0.80;;;9.00;99.90;;;;;;5110684;27;20058;-84
2023/03/19 03:09:08;;;;;;;1.25;0.70;;;9.10;99.90;;;;;;5133315;27;20057;-84
2023/03/19 03:11:35;;;;;;;1.13;0.75;;;9.10;99.90;;;;;;5112719;27;20099;-84
2023/03/19 03:14:00;;;;;;;1.75;0.88;;;9.10;99.90;;;;;;5112894;27;20046;-86
2023/03/19 03:16:26;;;;;;;1.10;0.67;;;9.10;99.90;;;;;;5105919;27;20125;-84
2023/03/19 03:18:52;;;;;;;1.73;1.63;;;9.10;99.90;;;;;;5108130;27;20039;-84
2023/03/19 03:21:20;;;;;;;2.88;1.75;;;9.10;99.90;;;;;;5106309;27;20115;-84
2023/03/19 03:23:47;;;;;;;4.65;1.38;;;9.00;99.90;;;;;;5125421;27;20051;-88
2023/03/19 03:26:13;;;;;;;2.20;1.33;;;9.00;99.90;;;;;;5127137;27;20113;-84
2023/03/19 03:28:39;;;;;;;1.17;1.02;;;9.00;99.90;;;;;;5110366;27;20046;-84
2023/03/19 03:31:05;;;;;;;1.67;1.48;;;9.00;99.90;;;;;;5124703;27;20039;-84
2023/03/19 03:33:31;;;;;;;1.30;1.10;;;9.00;99.90;;;;;;5127507;27;20105;-84
2023/03/19 03:35:57;;;;;;;2.83;1.27;;;9.00;99.90;;;;;;5092747;27;20122;-84
2023/03/19 03:38:23;;;;;;;2.15;1.50;;;9.00;99.90;;;;;;5107503;27;20488;-84
2023/03/19 03:40:52;;;;;;;3.13;1.38;;;8.90;99.90;;;;;;5107421;27;20057;-84
2023/03/19 03:43:19;;;;;;;1.57;1.03;;;8.90;99.90;;;;;;5100977;27;20051;-84
2023/03/19 03:45:47;;;;;;;1.88;1.30;;;8.80;99.90;;;;;;5121846;27;20051;-84
2023/03/19 03:48:13;;;;;;;1.33;1.13;;;8.80;99.90;;;;;;5105109;27;20741;-84
2023/03/19 03:50:39;;;;;;;1.95;1.52;;;8.80;99.90;;;;;;5097560;27;20039;-84
2023/03/19 03:53:05;;;;;;;0.67;0.67;;;8.80;99.90;;;;;;5111060;27;20046;-84
2023/03/19 03:55:31;;;;;;;0.93;0.85;;;8.80;99.90;;;;;;5126592;27;20039;-85
2023/03/19 03:57:57;;;;;;;1.90;1.00;;;8.80;99.90;;;;;;5123360;27;20039;-84
2023/03/19 04:00:24;;;;;;;1.63;0.90;;;8.90;99.90;;;;;;5125755;27;20184;-84
2023/03/19 04:02:50;;;;;;;2.40;1.00;;;8.90;99.90;;;;;;5108510;27;20050;-84
2023/03/19 04:05:16;;;;;;;1.33;0.63;;;8.90;99.90;;;;;;5115948;27;20047;-85
2023/03/19 04:07:42;;;;;;;1.45;1.17;;;8.90;99.90;;;;;;5108475;27;20050;-85
2023/03/19 04:10:09;;;;;;;2.28;0.77;;;8.90;99.90;;;;;;5105075;27;20038;-84
2023/03/19 04:12:37;;;;;;;1.45;0.85;;;9.00;99.90;;;;;;5107678;27;20037;-84
2023/03/19 04:15:04;;;;;;;0.95;0.88;;;9.00;99.90;;;;;;5104329;27;20043;-85
2023/03/19 04:17:30;;;;;;;1.77;1.00;;;9.00;99.90;;;;;;5092175;27;20042;-84
2023/03/19 04:19:56;;;;;;;1.33;0.50;;;9.00;99.90;;;;;;5092970;27;20533;-86
2023/03/19 04:22:21;;;;;;;1.85;0.85;;;9.00;99.90;;;;;;5088989;27;20050;-84
2023/03/19 04:24:47;;;;;;;0.90;0.70;;;9.00;99.90;;;;;;5107337;27;20035;-84
2023/03/19 04:27:13;;;;;;;1.73;0.83;;;9.00;99.90;;;;;;5106822;27;20038;-84
2023/03/19 04:29:38;;;;;;;1.57;1.30;;;9.00;99.90;;;;;;5109530;27;20454;-84
2023/03/19 04:32:04;;;;;;;1.60;0.93;;;9.00;99.90;;;;;;5095965;27;20043;-84
2023/03/19 04:34:30;;;;;;;0.68;0.38;;;9.00;99.90;;;;;;5097685;27;20129;-84
2023/03/19 04:36:57;;;;;;;2.33;0.50;;;9.00;99.90;;;;;;5097881;27;20127;-88
2023/03/19 04:39:23;;;;;;;;;;;9.00;99.90;;;;;;5136815;27;20872;-84
2023/03/19 04:41:49;;;;;;;1.05;0.43;;;9.00;99.90;;;;;;5134964;27;19919;-84
2023/03/19 04:44:15;;;;;;;0.90;0.50;;;9.10;99.90;;;;;;5118954;27;20061;-84
2023/03/19 04:46:43;;;;;;;3.42;0.77;;;9.00;99.90;;;;;;5136344;27;20054;-84
2023/03/19 04:49:09;;;;;;;1.17;0.38;;;9.00;99.90;;;;;;5102262;27;20047;-84
2023/03/19 04:51:34;;;;;;;0.40;0.40;;;9.00;99.90;;;;;;5136697;27;20041;-84
2023/03/19 04:54:00;;;;;;;1.30;0.80;;;9.00;99.90;;;;;;5101726;27;20039;-86
2023/03/19 04:56:26;;;;;;;0.87;0.87;;;9.00;99.90;;;;;;5115167;27;20134;-84
2023/03/19 04:58:53;;;;;;;1.10;0.68;;;9.10;99.90;;;;;;5098987;27;20126;-84
2023/03/19 05:01:19;;;;;;;0.95;0.60;;;9.00;99.90;;;;;;5116576;27;20099;-84
2023/03/19 05:03:45;;;;;;;0.70;0.65;;;9.00;99.90;;;;;;5128686;27;20066;-84
2023/03/19 05:06:11;;;;;;;0.80;0.75;;;8.90;99.90;;;;;;5112952;28;20519;-84
2023/03/19 05:08:36;;;;;;;2.80;0.80;;;8.90;99.90;;;;;;5107471;28;20058;-84
2023/03/19 05:11:02;;;;;;;1.07;0.87;;;8.80;99.90;;;;;;5103122;28;20059;-87
2023/03/19 05:13:28;;;;;;;0.30;0.30;;;8.80;99.90;;;;;;5103829;28;20052;-84
2023/03/19 05:15:54;;;;;;;0.70;0.57;;;8.80;99.90;;;;;;5092053;28;20039;-84
2023/03/19 05:18:21;;;;;;;1.77;0.50;;;8.70;99.90;;;;;;5106412;28;20043;-84
2023/03/19 05:20:47;;;;;;;0.60;0.30;;;8.60;99.90;;;;;;5123048;28;20043;-85
2023/03/19 05:23:12;;;;;;;1.42;0.82;;;8.60;99.90;;;;;;5097664;28;20152;-84
2023/03/19 05:25:39;;;;;;;2.13;0.50;;;8.60;99.90;;;;;;5101215;28;20042;-84
2023/03/19 05:28:06;;;;;;;;;;;8.50;99.90;;;;;;5075575;28;20044;-84
2023/03/19 05:30:33;;;;;;;0.60;0.60;;;8.50;99.90;;;;;;5123609;28;19927;-84
2023/03/19 05:32:58;;;;;;;;;;;8.50;99.90;;;;;;5095212;28;20047;-84
2023/03/19 05:35:26;;;;;;;2.92;0.82;;;8.40;99.90;;;;;;5118820;28;19919;-84
2023/03/19 05:37:52;;;;;;;1.30;0.63;;;8.40;99.90;;;;;;5117800;28;20044;-84
2023/03/19 05:40:18;;;;;;;1.27;0.65;;;8.30;99.90;;;;;;5124570;28;20075;-84
2023/03/19 05:42:44;;;;;;;0.43;0.40;;;8.20;99.90;;;;;;5132603;28;20079;-84
2023/03/19 05:45:10;;;;;;;0.47;0.40;;;8.20;99.90;;;;;;5080016;28;20051;-84
2023/03/19 05:47:36;;;;;;;0.38;0.38;;;8.10;99.90;;;;;;5132514;28;20101;-84
2023/03/19 05:50:02;;;;;;;0.97;0.47;;;8.10;99.90;;;;;;5132830;28;20370;-84
2023/03/19 05:52:28;;;;;;;1.02;0.60;;;8.00;99.90;;;;;;5132181;28;20039;-84
2023/03/19 05:54:53;;;;;;;0.87;0.40;;;8.00;99.90;;;;;;5098575;28;20499;-84
2023/03/19 05:57:20;;;;;;;0.93;0.73;;;8.00;99.90;;;;;;5097682;28;20092;-84
2023/03/19 05:59:45;;;;;;;1.02;0.98;;;7.90;99.90;;;;;;5111413;28;20078;-84
2023/03/19 06:02:11;;;;;;;0.43;0.37;;;7.90;99.90;;;;;;5093405;28;20075;-84
2023/03/19 06:04:37;;;;;;;1.43;0.40;;;7.90;99.90;;;;;;5111816;28;20047;-84
2023/03/19 06:07:03;;;;;;;0.83;0.30;;;7.90;99.90;;;;;;5093306;28;20107;-84
2023/03/19 06:09:29;;;;;;;0.60;0.52;;;7.80;99.90;;;;;;5081323;28;20047;-85
2023/03/19 06:11:55;;;;;;;1.63;0.88;;;7.80;99.90;;;;;;5120379;27;20039;-84
2023/03/19 06:14:22;;;;;;;0.65;0.40;;;7.80;99.90;;;;;;5106090;27;20044;-84
2023/03/19 06:16:48;;;;;;;1.00;0.40;;;7.80;99.90;;;;;;5096825;27;20039;-84
2023/03/19 06:19:14;;;;;;;0.17;0.17;;;7.80;99.90;;;;;;5106103;27;20044;-84
2023/03/19 06:21:40;;;;;;;1.10;0.80;;;7.80;99.90;;;;;;5118462;27;20122;-84
2023/03/19 06:24:06;;;;;;;0.60;0.43;;;7.90;99.90;;;;;;5134189;27;20172;-84
2023/03/19 06:26:32;;;;;;;0.30;0.30;;;7.90;99.90;;;;;;5094652;28;20081;-84
2023/03/19 06:28:58;;;;;;;1.48;0.55;;;7.90;99.90;;;;;;5122276;27;20035;-84
2023/03/19 06:31:24;;;;;;;0.33;0.17;;;7.90;99.90;;;;;;5122430;27;21336;-85
2023/03/19 06:33:49;;;;;;;0.57;0.40;;;7.90;99.90;;;;;;5125253;27;20131;-84
2023/03/19 06:36:16;;;;;;;0.70;0.57;;;8.20;99.90;;;;;;5116055;27;20058;-84
2023/03/19 06:38:42;;;;;;;;;;;8.60;99.90;;;;;;5098297;28;20051;-84
2023/03/19 06:41:07;;;;;;;0.65;0.65;;;8.90;99.90;;;;;;5107524;28;19920;-84
2023/03/19 06:43:35;;;;;;;0.57;0.40;;;9.10;99.90;;;;;;5097215;28;20137;-85
2023/03/19 06:46:05;;;;;;;0.80;0.40;;;9.30;99.90;;;;;;5089613;27;20042;-85
2023/03/19 06:48:32;;;;;;;0.43;0.40;;;9.50;99.90;;;;;;5091709;27;20031;-84
2023/03/19 06:50:58;;;;;;;0.82;0.77;;;9.70;99.90;;;;;;5107242;27;20044;-86
2023/03/19 06:53:24;;;;;;;0.90;0.63;;;9.70;99.90;;;;;;5098817;27;20043;-85
2023/03/19 06:55:50;;;;;;;0.80;0.63;;;9.60;99.90;;;;;;5126006;27;20047;-84
2023/03/19 06:58:16;;;;;;;0.37;0.37;;;9.50;99.90;;;;;;5116520;27;20039;-87
2023/03/19 07:00:42;;;;;;;0.73;0.50;;;9.50;99.90;;;;;;5103046;27;20285;-85
2023/03/19 07:03:08;;;;;;;0.40;0.40;;;9.40;99.90;;;;;;5119736;27;20043;-85
2023/03/19 07:05:34;;;;;;;1.00;0.70;;;9.40;99.90;;;;;;5122202;27;20506;-84
2023/03/19 07:08:00;;;;;;;0.63;0.47;;;9.40;99.90;;;;;;5104235;27;20079;-84
2023/03/19 07:10:26;;;;;;;0.97;0.73;;;9.50;99.90;;;;;;5105559;27;20346;-87
2023/03/19 07:12:52;;;;;;;0.63;0.60;;;10.00;99.90;;;;;;5126663;27;20092;-90
2023/03/19 07:15:20;;;;;;;1.13;0.30;;;10.50;99.90;;;;;;5101704;28;20046;-82
2023/03/19 07:17:46;;;;;;;0.63;0.50;;;11.00;99.90;;;;;;5119292;27;20043;-83
2023/03/19 07:20:12;;;;;;;;;;;11.40;99.90;;;;;;5122660;27;20054;-83
2023/03/19 07:22:38;;;;;;;0.52;0.40;;;11.80;99.90;;;;;;5109553;27;19919;-83
2023/03/19 07:25:04;;;;;;;1.77;0.82;;;12.10;99.90;;;;;;5121251;27;20039;-82
2023/03/19 07:27:30;;;;;;;1.60;0.65;;;12.40;99.90;;;;;;5121039;27;20052;-83
2023/03/19 07:29:56;;;;;;;1.20;0.68;;;12.70;99.90;;;;;;5126584;27;20059;-83
2023/03/19 07:32:22;;;;;;;0.73;0.73;;;12.90;99.90;;;;;;5112347;27;20040;-84
2023/03/19 07:34:48;;;;;;;1.02;0.70;;;13.00;99.90;;;;;;5100485;27;20137;-82
2023/03/19 07:37:14;;;;;;;0.40;0.40;;;13.30;99.90;;;;;;5102966;27;20051;-83
2023/03/19 07:39:43;;;;;;;0.95;0.80;;;13.40;99.90;;;;;;5134214;27;20101;-83
2023/03/19 07:42:09;;;;;;;0.85;0.75;;;13.60;99.90;;;;;;5125205;27;20048;-83
2023/03/19 07:44:34;;;;;;;1.05;0.75;;;13.60;99.90;;;;;;5120447;27;20100;-83
2023/03/19 07:47:00;;;;;;;0.77;0.65;;;13.80;99.90;;;;;;5077680;28;20040;-85
2023/03/19 07:49:32;;;;;;;2.30;1.42;;;14.00;99.90;;;;;;5103230;27;20047;-85
2023/03/19 07:51:58;;;;;;;1.95;0.90;;;14.20;99.90;;;;;;5124421;27;20504;-85
2023/03/19 07:54:24;;;;;;;0.55;0.47;;;14.30;99.90;;;;;;5101986;27;20043;-86
2023/03/19 07:56:50;;;;;;;0.70;0.70;;;14.30;99.90;;;;;;5091078;27;20052;-87
2023/03/19 07:59:15;;;;;;;1.20;0.85;;;14.40;99.90;;;;;;5105627;27;20050;-84
2023/03/19 08:01:41;;;;;;;0.93;0.63;;;14.40;99.90;;;;;;5120903;27;20077;-82
2023/03/19 08:04:07;;;;;;;0.93;0.85;;;14.40;99.90;;;;;;5108666;27;20031;-86
2023/03/19 08:06:33;;;;;;;1.48;0.80;;;14.50;99.90;;;;;;5125230;27;20074;-86
2023/03/19 08:08:58;;;;;;;1.13;0.73;;;14.70;99.90;;;;;;5077890;27;20069;-88
2023/03/19 08:11:24;;;;;;;0.75;0.70;;;14.80;99.90;;;;;;5090685;28;20118;-89
2023/03/19 08:13:50;;;;;;;1.05;0.80;;;14.80;99.90;;;;;;5130321;27;20404;-85
2023/03/19 08:16:16;;;;;;;1.85;0.80;;;14.90;99.90;;;;;;5105432;28;20044;-88
2023/03/19 08:18:42;;;;;;;0.65;0.65;;;14.60;99.90;;;;;;5126188;27;20043;-89
2023/03/19 08:21:08;;;;;;;1.10;0.80;;;14.20;99.90;;;;;;5125838;27;20039;-89
2023/03/19 08:23:51;;;;;;;;;;;;;;;;;;;;;
2023/03/19 08:26:20;;;;;;;0.73;0.50;;;12.30;99.90;;;;;;5112193;28;20558;-89
2023/03/19 08:28:46;;;;;;;1.23;0.80;;;12.60;99.90;;;;;;5104117;27;20046;-87
2023/03/19 08:31:13;;;;;;;1.95;1.10;;;12.30;99.90;;;;;;5093381;27;20039;-88
2023/03/19 08:33:42;;;;;;;1.70;0.98;;;12.50;99.90;;;;;;5099648;27;20063;-89
2023/03/19 08:36:10;;;;;;;1.23;1.05;;;12.80;99.90;;;;;;5105212;28;20040;-87
2023/03/19 08:38:37;;;;;;;1.13;0.52;;;12.70;99.90;;;;;;5121947;27;20393;-87
2023/03/19 08:41:03;;;;;;;1.27;0.82;;;12.70;99.90;;;;;;5099378;28;20538;-87
2023/03/19 08:43:30;;;;;;;1.58;1.10;;;12.60;99.90;;;;;;5125732;27;20085;-90
2023/03/19 08:45:56;;;;;;;1.40;0.75;;;12.60;99.90;;;;;;5113080;27;20390;-88
2023/03/19 08:48:22;;;;;;;1.35;1.00;;;12.50;99.90;;;;;;5123310;27;20039;-88
2023/03/19 08:50:56;;;;;;;1.10;0.60;;;12.30;99.90;;;;;;5126230;27;20508;-87
2023/03/19 08:53:24;;;;;;;1.38;0.82;;;12.10;99.90;;;;;;5094328;28;20297;-87
2023/03/19 08:56:04;;;;;;;2.72;1.00;;;12.00;99.90;;;;;;5112299;27;20562;-88
2023/03/19 08:58:30;;;;;;;1.10;1.00;;;11.80;99.90;;;;;;5110966;27;20121;-87
2023/03/19 09:01:10;;;;;;;1.30;0.55;;;11.70;99.90;;;;;;5114625;28;20058;-88
2023/03/19 09:03:37;;;;;;;1.50;0.70;;;11.70;99.90;;;;;;5115257;27;20038;-86
2023/03/19 09:06:05;;;;;;;2.17;1.10;;;11.90;99.90;;;;;;5103190;27;20050;-90
2023/03/19 09:08:32;;;;;;;0.38;0.32;;;12.10;99.90;;;;;;5098814;27;20107;-88
2023/03/19 09:10:59;;;;;;;0.63;0.63;;;12.60;99.90;;;;;;5103226;27;20082;-89
2023/03/19 09:13:25;;;;;;;1.88;0.98;;;12.80;99.90;;;;;;5101274;27;20378;-89
2023/03/19 09:15:51;;;;;;;1.70;0.60;;;12.80;99.90;;;;;;5108317;27;20095;-88
2023/03/19 09:18:19;;;;;;;1.85;0.95;;;12.60;99.90;;;;;;5110373;27;20043;-89
2023/03/19 09:20:46;;;;;;;0.95;0.80;;;12.30;99.90;;;;;;5101149;28;20070;-86
2023/03/19 09:23:12;;;;;;;1.33;0.85;;;12.20;99.90;;;;;;5120721;27;20062;-86
2023/03/19 09:25:38;;;;;;;0.77;0.77;;;12.10;99.90;;;;;;5102157;28;20046;-91
2023/03/19 09:28:04;;;;;;;1.38;1.20;;;12.10;99.90;;;;;;5105787;27;20051;-91
2023/03/19 09:30:31;;;;;;;1.50;1.03;;;12.00;99.90;;;;;;5098973;27;20098;-91
2023/03/19 09:32:59;;;;;;;1.80;1.10;;;11.90;99.90;;;;;;5110442;27;20053;-89
2023/03/19 09:35:30;;;;;;;0.82;0.60;;;11.90;99.90;;;;;;5106380;27;20476;-90
2023/03/19 09:37:56;;;;;;;1.13;1.02;;;11.80;99.90;;;;;;5101814;27;20054;-88
2023/03/19 09:40:52;;;;;;;0.85;0.60;;;11.80;99.90;;;;;;5107199;27;20043;-91
2023/03/19 09:43:48;;;;;;;0.60;0.57;;;12.00;99.90;;;;;;5123346;27;20117;-90
2023/03/19 09:46:19;;;;;;;2.20;0.98;;;12.00;99.90;;;;;;5097046;28;20084;-91
2023/03/19 09:48:51;;;;;;;0.47;0.45;;;12.40;99.90;;;;;;5121215;27;20168;-90
2023/03/19 09:51:43;;;;;;;0.93;0.70;;;12.60;99.90;;;;;;5110730;27;20113;-90
2023/03/19 09:54:35;;;;;;;0.85;0.77;;;12.50;99.90;;;;;;5121413;27;20050;-92
2023/03/19 09:57:01;;;;;;;1.45;1.17;;;11.90;99.90;;;;;;5125904;27;20051;-91
2023/03/19 09:59:30;;;;;;;1.58;0.73;;;12.90;99.90;;;;;;5099870;27;20039;-92
2023/03/19 10:02:14;;;;;;;1.10;1.00;;;13.00;99.90;;;;;;5103738;27;20039;-91
2023/03/19 10:04:49;;;;;;;1.75;1.02;;;13.00;99.90;;;;;;5102434;27;20045;-88
2023/03/19 10:07:42;;;;;;;1.08;0.82;;;12.80;99.90;;;;;;5122356;27;20047;-89
2023/03/19 10:10:16;;;;;;;0.30;0.30;;;12.70;99.90;;;;;;5110992;27;20536;-89
2023/03/19 10:13:08;;;;;;;1.50;0.93;;;12.60;99.90;;;;;;5115772;27;20071;-90
2023/03/19 10:15:36;;;;;;;2.17;1.27;;;12.60;99.90;;;;;;5098544;28;20054;-89
2023/03/19 10:18:14;;;;;;;1.10;0.90;;;12.50;99.90;;;;;;5121899;27;20046;-90
2023/03/19 10:20:49;;;;;;;2.22;1.00;;;12.50;99.90;;;;;;5129792;27;20035;-89
2023/03/19 10:23:51;;;;;;;1.35;1.00;;;12.60;99.90;;;;;;5122710;27;20039;-88
2023/03/19 10:26:20;;;;;;;1.35;0.93;;;12.90;99.90;;;;;;5104723;28;20052;-89
2023/03/19 10:29:08;;;;;;;1.13;0.77;;;12.90;99.90;;;;;;5115201;27;20036;-87
2023/03/19 10:31:34;;;;;;;1.45;0.63;;;12.90;99.90;;;;;;5114703;27;20043;-88
2023/03/19 10:34:10;;;;;;;0.93;0.85;;;12.70;99.90;;;;;;5116940;27;20086;-87
2023/03/19 10:36:36;;;;;;;1.17;0.85;;;12.70;99.90;;;;;;5104330;28;20028;-88
2023/03/19 10:39:06;;;;;;;2.70;1.23;;;12.70;99.90;;;;;;5129477;27;20146;-88
2023/03/19 10:41:51;;;;;;;0.47;0.47;;;12.70;99.90;;;;;;5114868;27;20114;-88
2023/03/19 10:44:29;;;;;;;0.68;0.60;;;12.70;99.90;;;;;;5097300;28;20075;-88
2023/03/19 10:47:08;;;;;;;1.70;0.70;;;12.60;99.90;;;;;;5116687;27;20092;-86
2023/03/19 10:49:35;;;;;;;1.02;0.80;;;12.60;99.90;;;;;;5097124;28;20110;-88
2023/03/19 10:52:01;;;;;;;0.80;0.38;;;12.60;99.90;;;;;;5097579;27;20043;-87
2023/03/19 10:54:28;;;;;;;1.80;0.95;;;12.80;99.90;;;;;;5119079;27;20173;-87
2023/03/19 10:56:59;;;;;;;1.65;1.35;;;12.90;99.90;;;;;;5103507;28;20044;-87
2023/03/19 10:59:39;;;;;;;1.88;1.10;;;13.00;99.90;;;;;;5129800;27;20039;-88
2023/03/19 11:02:21;;;;;;;1.83;0.95;;;13.10;99.90;;;;;;5118962;27;20043;-86
2023/03/19 11:04:47;;;;;;;1.30;0.70;;;13.10;99.90;;;;;;5129122;27;20040;-90
2023/03/19 11:07:20;;;;;;;1.63;0.90;;;13.10;99.90;;;;;;5122650;27;20058;-93
2023/03/19 11:09:51;;;;;;;1.90;0.95;;;13.00;99.90;;;;;;5100100;28;20301;-92
2023/03/19 11:12:21;;;;;;;1.75;1.10;;;12.80;99.90;;;;;;5102868;28;20043;-93
2023/03/19 11:14:52;;;;;;;1.75;1.00;;;12.80;99.90;;;;;;5134180;27;20047;-93
2023/03/19 11:17:22;;;;;;;0.63;0.45;;;12.80;99.90;;;;;;5117957;27;20492;-94
2023/03/19 11:19:58;;;;;;;2.17;1.27;;;13.00;99.90;;;;;;5114536;28;20051;-93
2023/03/19 11:22:32;;;;;;;0.75;0.73;;;13.30;99.90;;;;;;5114955;27;20188;-92
2023/03/19 11:25:18;;;;;;;1.33;0.73;;;13.60;99.90;;;;;;5107059;27;20054;-96
2023/03/19 11:27:56;;;;;;;1.23;0.80;;;13.80;99.90;;;;;;5119203;27;20131;-93
2023/03/19 11:30:22;;;;;;;3.30;0.70;;;13.90;99.90;;;;;;5116442;27;20046;-93
2023/03/19 11:32:57;;;;;;;3.80;1.63;;;13.80;99.90;;;;;;5106578;27;20039;-92
2023/03/19 11:35:25;;;;;;;1.80;1.08;;;13.70;99.90;;;;;;5111120;27;20058;-92
2023/03/19 11:37:59;;;;;;;2.50;1.88;;;13.70;99.90;;;;;;5106679;28;20044;-93
2023/03/19 11:40:39;;;;;;;1.27;0.90;;;13.60;99.90;;;;;;5125181;27;20050;-91
2023/03/19 11:43:18;;;;;;;3.35;1.75;;;13.60;99.90;;;;;;5105598;27;20046;-91
2023/03/19 11:45:53;;;;;;;0.80;0.63;;;13.50;99.90;;;;;;5103878;27;20426;-91
2023/03/19 11:48:31;;;;;;;3.00;1.20;;;13.50;99.90;;;;;;5114905;27;20051;-91
2023/03/19 11:51:32;;;;;;;2.55;1.20;;;13.50;99.90;;;;;;5116102;27;20035;-91
2023/03/19 11:54:20;;;;;;;3.00;1.10;;;13.80;99.90;;;;;;5104061;27;20039;-92
2023/03/19 11:56:55;;;;;;;0.90;0.90;;;13.60;99.90;;;;;;5108127;27;20043;-91
2023/03/19 11:59:39;;;;;;;1.08;0.98;;;13.50;99.90;;;;;;5134075;27;20457;-90
2023/03/19 12:02:26;;;;;;;1.52;1.38;;;13.50;99.90;;;;;;5101657;27;20035;-90
2023/03/19 12:05:29;;;;;;;1.73;1.48;;;13.60;99.90;;;;;;5121084;27;20100;-91
2023/03/19 12:08:29;;;;;;;1.38;1.02;;;13.60;99.90;;;;;;5132936;27;20062;-91
2023/03/19 12:11:03;;;;;;;2.28;1.30;;;13.60;99.90;;;;;;5099607;28;20397;-89
2023/03/19 12:13:58;;;;;;;1.48;1.05;;;13.60;99.90;;;;;;5101695;27;20061;-93
2023/03/19 12:17:03;;;;;;;1.10;0.88;;;13.20;99.90;;;;;;5131419;27;20050;-91
2023/03/19 12:20:02;;;;;;;1.42;0.82;;;13.60;99.90;;;;;;5118546;27;20043;-92
2023/03/19 12:22:55;;;;;;;1.80;1.17;;;13.60;99.90;;;;;;5103369;27;20035;-91
2023/03/19 12:25:30;;;;;;;1.05;1.05;;;13.50;99.90;;;;;;5119662;27;20051;-93
2023/03/19 12:28:13;;;;;;;1.25;0.63;;;13.60;99.90;;;;;;5121955;27;20134;-92
2023/03/19 12:30:48;;;;;;;1.20;0.80;;;13.60;99.90;;;;;;5113899;28;20454;-91
2023/03/19 12:33:50;;;;;;;2.63;1.38;;;13.60;99.90;;;;;;5116215;27;20401;-93
2023/03/19 12:36:22;;;;;;;2.40;0.80;;;13.60;99.90;;;;;;5097306;28;20101;-93
2023/03/19 12:38:56;;;;;;;2.03;1.30;;;13.60;99.90;;;;;;5129101;27;20079;-90
2023/03/19 12:41:24;;;;;;;1.40;0.90;;;13.60;99.90;;;;;;5134963;27;20039;-92
2023/03/19 12:44:12;;;;;;;1.40;1.30;;;13.60;99.90;;;;;;5114950;28;20050;-93
2023/03/19 12:46:40;;;;;;;;;;;13.70;99.90;;;;;;5125222;27;20067;-92
2023/03/19 12:49:29;;;;;;;1.95;1.20;;;13.80;99.90;;;;;;5097512;27;19920;-92
2023/03/19 12:52:00;;;;;;;1.00;0.88;;;14.10;99.90;;;;;;5125152;27;20126;-93
2023/03/19 12:54:33;;;;;;;1.20;0.65;;;14.30;99.90;;;;;;5097905;28;20420;-93
2023/03/19 12:57:21;;;;;;;0.82;0.60;;;14.40;99.90;;;;;;5096092;28;20507;-91
2023/03/19 12:59:59;;;;;;;1.95;0.65;;;14.60;99.90;;;;;;5130510;27;20112;-86
2023/03/19 13:03:03;;;;;;;1.05;0.95;;;14.70;99.90;;;;;;5116372;27;20071;-89
2023/03/19 13:05:35;;;;;;;1.67;1.42;;;14.60;99.90;;;;;;5099713;27;20493;-92
2023/03/19 13:08:10;;;;;;;1.73;0.93;;;14.70;99.90;;;;;;5102271;28;20050;-89
2023/03/19 13:10:37;;;;;;;2.08;1.23;;;14.70;99.90;;;;;;5107443;28;20165;-88
2023/03/19 13:13:20;;;;;;;;;;;14.70;99.90;;;;;;5123772;28;20048;-95